sensor_id;sensor_type;location;lat;lon;timestamp;P1;durP1;ratioP1;P2;durP2;ratioP2
55601;SDS011;59921;51.332;12.410;2022-11-20T14:10:05;12.50;;;6.80;;
55601;SDS011;59921;51.332;12.410;2022-11-20T14:12:31;22.60;;;7.40;;
55601;SDS011;59921;51.332;12.410;2022-11-20T14:14:59;14.48;;;7.00;;
55601;SDS011;59921;51.332;12.410;2022-11-20T14:19:53;10.73;;;6.18;;
55601;SDS011;59921;51.332;12.410;2022-11-20T14:22:24;10.70;;;6.70;;
55601;SDS011;59921;51.332;12.410;2022-11-20T14:25:01;12.98;;;6.90;;
55601;SDS011;59921;51.332;12.410;2022-11-20T14:27:32;13.52;;;6.32;;
55601;SDS011;59921;51.332;12.410;2022-11-20T14:30:01;12.10;;;6.57;;
55601;SDS011;59921;51.332;12.410;2022-11-20T14:32:28;11.23;;;6.95;;
55601;SDS011;59921;51.332;12.410;2022-11-20T14:34:55;12.60;;;6.53;;
55601;SDS011;59921;51.332;12.410;2022-11-20T14:37:27;9.88;;;6.63;;
55601;SDS011;59921;51.332;12.410;2022-11-20T14:43:36;7.75;;;4.03;;
55601;SDS011;59921;51.332;12.410;2022-11-20T14:46:07;6.50;;;4.15;;
55601;SDS011;59921;51.332;12.410;2022-11-20T14:48:37;6.00;;;4.22;;
55601;SDS011;59921;51.332;12.410;2022-11-20T14:51:08;7.57;;;4.32;;
55601;SDS011;59921;51.332;12.410;2022-11-20T14:53:35;5.35;;;3.83;;
55601;SDS011;59921;51.332;12.410;2022-11-20T14:56:01;5.47;;;4.20;;
55601;SDS011;59921;51.332;12.410;2022-11-20T14:58:28;5.65;;;3.85;;
55601;SDS011;59921;51.332;12.410;2022-11-20T15:00:57;5.50;;;4.28;;
55601;SDS011;59921;51.332;12.410;2022-11-20T15:03:30;4.90;;;3.83;;
55601;SDS011;59921;51.332;12.410;2022-11-20T15:05:56;5.75;;;3.92;;
55601;SDS011;59921;51.332;12.410;2022-11-20T15:08:22;5.60;;;3.97;;
55601;SDS011;59921;51.332;12.410;2022-11-20T15:10:50;5.20;;;3.80;;
55601;SDS011;59921;51.332;12.410;2022-11-20T15:13:24;6.03;;;3.95;;
55601;SDS011;59921;51.332;12.410;2022-11-20T15:15:56;6.72;;;4.10;;
55601;SDS011;59921;51.332;12.410;2022-11-20T15:18:23;7.70;;;4.20;;
55601;SDS011;59921;51.332;12.410;2022-11-20T15:20:57;5.78;;;3.95;;
55601;SDS011;59921;51.332;12.410;2022-11-20T15:23:26;7.70;;;3.72;;
55601;SDS011;59921;51.332;12.410;2022-11-20T15:25:52;5.53;;;3.70;;
55601;SDS011;59921;51.332;12.410;2022-11-20T15:28:31;5.10;;;3.47;;
55601;SDS011;59921;51.332;12.410;2022-11-20T15:31:16;7.03;;;3.78;;
55601;SDS011;59921;51.332;12.410;2022-11-20T15:33:42;5.05;;;3.88;;
55601;SDS011;59921;51.332;12.410;2022-11-20T15:36:08;6.05;;;3.38;;
55601;SDS011;59921;51.332;12.410;2022-11-20T15:38:34;4.80;;;3.53;;
55601;SDS011;59921;51.332;12.410;2022-11-20T15:41:00;5.35;;;3.65;;
55601;SDS011;59921;51.332;12.410;2022-11-20T15:43:25;5.93;;;4.10;;
55601;SDS011;59921;51.332;12.410;2022-11-20T15:45:53;5.72;;;3.58;;
55601;SDS011;59921;51.332;12.410;2022-11-20T15:53:56;4.28;;;3.08;;
55601;SDS011;59921;51.332;12.410;2022-11-20T15:56:23;4.28;;;3.58;;
55601;SDS011;59921;51.332;12.410;2022-11-20T15:58:48;4.10;;;3.47;;
55601;SDS011;59921;51.332;12.410;2022-11-20T16:01:15;6.53;;;3.47;;
55601;SDS011;59921;51.332;12.410;2022-11-20T16:03:43;5.30;;;3.50;;
55601;SDS011;59921;51.332;12.410;2022-11-20T16:06:09;5.10;;;3.50;;
55601;SDS011;59921;51.332;12.410;2022-11-20T16:08:34;4.13;;;3.40;;
55601;SDS011;59921;51.332;12.410;2022-11-20T16:11:00;4.85;;;3.38;;
55601;SDS011;59921;51.332;12.410;2022-11-20T16:13:26;4.70;;;3.42;;
55601;SDS011;59921;51.332;12.410;2022-11-20T16:18:47;4.82;;;3.47;;
55601;SDS011;59921;51.332;12.410;2022-11-20T16:21:13;4.22;;;3.35;;
55601;SDS011;59921;51.332;12.410;2022-11-20T16:23:38;4.45;;;3.33;;
55601;SDS011;59921;51.332;12.410;2022-11-20T16:26:14;4.15;;;3.28;;
55601;SDS011;59921;51.332;12.410;2022-11-20T16:28:41;4.28;;;3.20;;
55601;SDS011;59921;51.332;12.410;2022-11-20T17:00:38;4.47;;;3.22;;
55601;SDS011;59921;51.332;12.410;2022-11-20T17:03:04;4.00;;;3.13;;
55601;SDS011;59921;51.332;12.410;2022-11-20T17:05:31;4.30;;;3.33;;
55601;SDS011;59921;51.332;12.410;2022-11-20T17:07:58;4.28;;;3.13;;
55601;SDS011;59921;51.332;12.410;2022-11-20T17:10:23;5.43;;;3.70;;
55601;SDS011;59921;51.332;12.410;2022-11-20T17:12:49;4.97;;;3.40;;
55601;SDS011;59921;51.332;12.410;2022-11-20T17:15:14;4.40;;;3.33;;
55601;SDS011;59921;51.332;12.410;2022-11-20T17:17:40;4.78;;;3.70;;
55601;SDS011;59921;51.332;12.410;2022-11-20T17:20:09;4.65;;;3.55;;
55601;SDS011;59921;51.332;12.410;2022-11-20T17:22:36;4.55;;;3.47;;
55601;SDS011;59921;51.332;12.410;2022-11-20T17:25:02;4.57;;;3.53;;
55601;SDS011;59921;51.332;12.410;2022-11-20T17:27:27;4.50;;;3.63;;
55601;SDS011;59921;51.332;12.410;2022-11-20T17:29:53;4.15;;;3.40;;
55601;SDS011;59921;51.332;12.410;2022-11-20T17:32:19;4.68;;;3.75;;
55601;SDS011;59921;51.332;12.410;2022-11-20T17:34:45;4.32;;;3.35;;
55601;SDS011;59921;51.332;12.410;2022-11-20T17:37:10;4.55;;;3.65;;
55601;SDS011;59921;51.332;12.410;2022-11-20T17:39:36;4.28;;;3.53;;
55601;SDS011;59921;51.332;12.410;2022-11-20T17:42:02;4.55;;;3.40;;
55601;SDS011;59921;51.332;12.410;2022-11-20T17:44:45;4.47;;;3.53;;
55601;SDS011;59921;51.332;12.410;2022-11-20T17:47:11;4.45;;;3.55;;
55601;SDS011;59921;51.332;12.410;2022-11-20T17:49:36;4.78;;;3.60;;
55601;SDS011;59921;51.332;12.410;2022-11-20T17:52:05;4.30;;;3.50;;
55601;SDS011;59921;51.332;12.410;2022-11-20T17:54:30;4.43;;;3.50;;
55601;SDS011;59921;51.332;12.410;2022-11-20T17:56:56;4.88;;;3.60;;
55601;SDS011;59921;51.332;12.410;2022-11-20T17:59:40;5.07;;;3.78;;
55601;SDS011;59921;51.332;12.410;2022-11-20T18:02:05;5.05;;;3.80;;
55601;SDS011;59921;51.332;12.410;2022-11-20T18:04:31;5.45;;;3.95;;
55601;SDS011;59921;51.332;12.410;2022-11-20T18:06:59;4.72;;;3.80;;
55601;SDS011;59921;51.332;12.410;2022-11-20T18:09:24;5.22;;;3.70;;
55601;SDS011;59921;51.332;12.410;2022-11-20T18:11:50;5.97;;;4.18;;
55601;SDS011;59921;51.332;12.410;2022-11-20T18:14:16;4.57;;;3.65;;
55601;SDS011;59921;51.332;12.410;2022-11-20T18:17:11;4.60;;;3.60;;
55601;SDS011;59921;51.332;12.410;2022-11-20T18:19:41;4.95;;;3.63;;
55601;SDS011;59921;51.332;12.410;2022-11-20T18:22:12;5.53;;;3.92;;
55601;SDS011;59921;51.332;12.410;2022-11-20T18:24:38;4.32;;;3.50;;
55601;SDS011;59921;51.332;12.410;2022-11-20T18:27:04;4.75;;;3.78;;
55601;SDS011;59921;51.332;12.410;2022-11-20T18:29:31;5.40;;;4.18;;
55601;SDS011;59921;51.332;12.410;2022-11-20T18:31:57;5.72;;;3.75;;
55601;SDS011;59921;51.332;12.410;2022-11-20T18:34:23;5.68;;;4.20;;
55601;SDS011;59921;51.332;12.410;2022-11-20T18:36:49;5.05;;;3.90;;
55601;SDS011;59921;51.332;12.410;2022-11-20T18:39:14;5.30;;;4.03;;
55601;SDS011;59921;51.332;12.410;2022-11-20T18:41:40;5.80;;;4.03;;
55601;SDS011;59921;51.332;12.410;2022-11-20T18:44:26;4.93;;;3.78;;
55601;SDS011;59921;51.332;12.410;2022-11-20T18:47:12;5.85;;;4.18;;
55601;SDS011;59921;51.332;12.410;2022-11-20T18:49:49;5.15;;;4.05;;
55601;SDS011;59921;51.332;12.410;2022-11-20T18:52:19;4.88;;;3.72;;
55601;SDS011;59921;51.332;12.410;2022-11-20T18:54:47;6.63;;;4.20;;
55601;SDS011;59921;51.332;12.410;2022-11-20T18:57:24;5.07;;;3.88;;
55601;SDS011;59921;51.332;12.410;2022-11-20T18:59:50;5.65;;;4.18;;
55601;SDS011;59921;51.332;12.410;2022-11-20T19:02:18;5.72;;;4.18;;
55601;SDS011;59921;51.332;12.410;2022-11-20T19:04:44;5.10;;;4.25;;
55601;SDS011;59921;51.332;12.410;2022-11-20T19:07:10;5.47;;;4.07;;
55601;SDS011;59921;51.332;12.410;2022-11-20T19:09:37;5.35;;;4.05;;
55601;SDS011;59921;51.332;12.410;2022-11-20T19:12:07;5.47;;;4.40;;
55601;SDS011;59921;51.332;12.410;2022-11-20T19:14:34;5.07;;;4.05;;
55601;SDS011;59921;51.332;12.410;2022-11-20T19:17:00;5.45;;;4.07;;
55601;SDS011;59921;51.332;12.410;2022-11-20T19:19:25;5.20;;;4.00;;
55601;SDS011;59921;51.332;12.410;2022-11-20T19:21:51;6.47;;;3.97;;
55601;SDS011;59921;51.332;12.410;2022-11-20T19:24:17;6.55;;;4.90;;
55601;SDS011;59921;51.332;12.410;2022-11-20T19:26:42;5.68;;;4.35;;
55601;SDS011;59921;51.332;12.410;2022-11-20T19:29:12;5.13;;;4.30;;
55601;SDS011;59921;51.332;12.410;2022-11-20T19:31:39;5.90;;;4.32;;
55601;SDS011;59921;51.332;12.410;2022-11-20T19:34:05;5.55;;;4.32;;
55601;SDS011;59921;51.332;12.410;2022-11-20T19:36:38;5.43;;;4.15;;
55601;SDS011;59921;51.332;12.410;2022-11-20T19:39:05;5.90;;;4.57;;
55601;SDS011;59921;51.332;12.410;2022-11-20T19:41:33;5.70;;;4.20;;
55601;SDS011;59921;51.332;12.410;2022-11-20T19:46:27;5.88;;;4.28;;
55601;SDS011;59921;51.332;12.410;2022-11-20T19:48:54;6.35;;;4.40;;
55601;SDS011;59921;51.332;12.410;2022-11-20T19:51:22;6.32;;;4.68;;
55601;SDS011;59921;51.332;12.410;2022-11-20T19:53:49;5.80;;;4.25;;
55601;SDS011;59921;51.332;12.410;2022-11-20T19:56:15;5.53;;;4.07;;
55601;SDS011;59921;51.332;12.410;2022-11-20T19:58:41;5.50;;;4.30;;
55601;SDS011;59921;51.332;12.410;2022-11-20T20:01:16;7.30;;;4.88;;
55601;SDS011;59921;51.332;12.410;2022-11-20T20:03:43;5.63;;;4.47;;
55601;SDS011;59921;51.332;12.410;2022-11-20T20:06:14;6.57;;;4.60;;
55601;SDS011;59921;51.332;12.410;2022-11-20T20:08:54;6.13;;;4.53;;
55601;SDS011;59921;51.332;12.410;2022-11-20T20:11:24;6.25;;;4.57;;
55601;SDS011;59921;51.332;12.410;2022-11-20T20:13:51;6.18;;;4.70;;
55601;SDS011;59921;51.332;12.410;2022-11-20T20:16:18;6.10;;;4.50;;
55601;SDS011;59921;51.332;12.410;2022-11-20T20:18:45;6.30;;;4.30;;
55601;SDS011;59921;51.332;12.410;2022-11-20T20:21:12;5.68;;;4.40;;
55601;SDS011;59921;51.332;12.410;2022-11-20T20:23:39;6.15;;;4.55;;
55601;SDS011;59921;51.332;12.410;2022-11-20T20:26:07;6.50;;;4.68;;
55601;SDS011;59921;51.332;12.410;2022-11-20T20:28:34;6.38;;;4.90;;
55601;SDS011;59921;51.332;12.410;2022-11-20T20:31:04;6.05;;;4.60;;
55601;SDS011;59921;51.332;12.410;2022-11-20T20:33:31;5.95;;;4.57;;
55601;SDS011;59921;51.332;12.410;2022-11-20T20:35:57;6.40;;;4.70;;
55601;SDS011;59921;51.332;12.410;2022-11-20T20:38:23;6.28;;;4.53;;
55601;SDS011;59921;51.332;12.410;2022-11-20T20:40:48;6.43;;;4.88;;
55601;SDS011;59921;51.332;12.410;2022-11-20T20:43:15;6.15;;;4.70;;
55601;SDS011;59921;51.332;12.410;2022-11-20T20:45:44;5.88;;;4.63;;
55601;SDS011;59921;51.332;12.410;2022-11-20T20:48:11;7.10;;;4.88;;
55601;SDS011;59921;51.332;12.410;2022-11-20T20:50:37;6.63;;;5.00;;
55601;SDS011;59921;51.332;12.410;2022-11-20T20:53:02;7.00;;;5.25;;
55601;SDS011;59921;51.332;12.410;2022-11-20T20:55:28;6.80;;;5.30;;
55601;SDS011;59921;51.332;12.410;2022-11-20T20:57:53;5.80;;;4.60;;
55601;SDS011;59921;51.332;12.410;2022-11-20T21:00:19;6.63;;;5.03;;
55601;SDS011;59921;51.332;12.410;2022-11-20T21:02:45;6.00;;;4.80;;
55601;SDS011;59921;51.332;12.410;2022-11-20T21:05:10;6.55;;;4.70;;
55601;SDS011;59921;51.332;12.410;2022-11-20T21:07:36;6.78;;;5.15;;
55601;SDS011;59921;51.332;12.410;2022-11-20T21:10:21;6.97;;;4.72;;
55601;SDS011;59921;51.332;12.410;2022-11-20T21:12:47;7.15;;;5.38;;
55601;SDS011;59921;51.332;12.410;2022-11-20T21:15:12;7.43;;;5.20;;
55601;SDS011;59921;51.332;12.410;2022-11-20T21:17:38;6.28;;;5.10;;
55601;SDS011;59921;51.332;12.410;2022-11-20T21:20:08;6.95;;;5.30;;
55601;SDS011;59921;51.332;12.410;2022-11-20T21:22:54;6.82;;;4.90;;
55601;SDS011;59921;51.332;12.410;2022-11-20T21:25:19;6.93;;;5.40;;
55601;SDS011;59921;51.332;12.410;2022-11-20T21:27:45;6.70;;;5.13;;
55601;SDS011;59921;51.332;12.410;2022-11-20T21:30:10;6.45;;;5.18;;
55601;SDS011;59921;51.332;12.410;2022-11-20T21:32:36;6.63;;;5.05;;
55601;SDS011;59921;51.332;12.410;2022-11-20T21:35:02;6.72;;;5.00;;
55601;SDS011;59921;51.332;12.410;2022-11-20T21:37:27;7.70;;;5.38;;
55601;SDS011;59921;51.332;12.410;2022-11-20T21:42:20;6.95;;;5.13;;
55601;SDS011;59921;51.332;12.410;2022-11-20T21:44:46;7.50;;;5.55;;
55601;SDS011;59921;51.332;12.410;2022-11-20T21:47:11;6.82;;;5.20;;
55601;SDS011;59921;51.332;12.410;2022-11-20T21:49:37;6.65;;;5.40;;
55601;SDS011;59921;51.332;12.410;2022-11-20T21:52:03;7.38;;;5.57;;
55601;SDS011;59921;51.332;12.410;2022-11-20T21:54:28;6.63;;;5.25;;
55601;SDS011;59921;51.332;12.410;2022-11-20T21:56:55;7.43;;;5.50;;
55601;SDS011;59921;51.332;12.410;2022-11-20T21:59:21;7.57;;;5.50;;
55601;SDS011;59921;51.332;12.410;2022-11-20T22:01:46;6.57;;;5.25;;
55601;SDS011;59921;51.332;12.410;2022-11-20T22:04:12;7.03;;;5.40;;
55601;SDS011;59921;51.332;12.410;2022-11-20T22:06:39;6.97;;;5.38;;
55601;SDS011;59921;51.332;12.410;2022-11-20T22:09:05;6.55;;;5.00;;
55601;SDS011;59921;51.332;12.410;2022-11-20T22:11:30;7.20;;;5.60;;
55601;SDS011;59921;51.332;12.410;2022-11-20T22:13:56;7.32;;;5.70;;
55601;SDS011;59921;51.332;12.410;2022-11-20T22:16:39;7.30;;;5.65;;
55601;SDS011;59921;51.332;12.410;2022-11-20T22:19:05;7.43;;;5.78;;
55601;SDS011;59921;51.332;12.410;2022-11-20T22:21:31;7.18;;;5.57;;
55601;SDS011;59921;51.332;12.410;2022-11-20T22:23:57;7.40;;;6.10;;
55601;SDS011;59921;51.332;12.410;2022-11-20T22:26:28;7.70;;;6.13;;
55601;SDS011;59921;51.332;12.410;2022-11-20T22:28:56;8.30;;;5.72;;
55601;SDS011;59921;51.332;12.410;2022-11-20T22:31:23;8.70;;;6.78;;
55601;SDS011;59921;51.332;12.410;2022-11-20T22:33:49;7.50;;;5.82;;
55601;SDS011;59921;51.332;12.410;2022-11-20T22:36:19;7.53;;;5.93;;
55601;SDS011;59921;51.332;12.410;2022-11-20T22:38:46;7.03;;;5.82;;
55601;SDS011;59921;51.332;12.410;2022-11-20T22:41:16;8.20;;;6.28;;
55601;SDS011;59921;51.332;12.410;2022-11-20T22:43:43;8.45;;;6.57;;
55601;SDS011;59921;51.332;12.410;2022-11-20T22:46:12;7.88;;;6.05;;
55601;SDS011;59921;51.332;12.410;2022-11-20T22:48:43;7.63;;;5.90;;
55601;SDS011;59921;51.332;12.410;2022-11-20T22:51:15;7.70;;;6.18;;
55601;SDS011;59921;51.332;12.410;2022-11-20T22:53:41;7.53;;;5.88;;
55601;SDS011;59921;51.332;12.410;2022-11-20T22:56:08;7.20;;;5.60;;
55601;SDS011;59921;51.332;12.410;2022-11-20T22:58:37;7.43;;;5.78;;
55601;SDS011;59921;51.332;12.410;2022-11-20T23:01:16;8.32;;;5.82;;
55601;SDS011;59921;51.332;12.410;2022-11-20T23:03:47;8.52;;;6.20;;
55601;SDS011;59921;51.332;12.410;2022-11-20T23:06:15;7.15;;;5.78;;
55601;SDS011;59921;51.332;12.410;2022-11-20T23:08:42;7.25;;;5.97;;
55601;SDS011;59921;51.332;12.410;2022-11-20T23:11:12;7.72;;;6.20;;
55601;SDS011;59921;51.332;12.410;2022-11-20T23:13:39;8.25;;;6.25;;
55601;SDS011;59921;51.332;12.410;2022-11-20T23:16:06;7.97;;;6.35;;
55601;SDS011;59921;51.332;12.410;2022-11-20T23:18:33;8.05;;;6.13;;
55601;SDS011;59921;51.332;12.410;2022-11-20T23:21:03;7.03;;;5.60;;
55601;SDS011;59921;51.332;12.410;2022-11-20T23:23:29;8.68;;;6.38;;
55601;SDS011;59921;51.332;12.410;2022-11-20T23:25:54;8.43;;;6.20;;
55601;SDS011;59921;51.332;12.410;2022-11-20T23:28:24;7.60;;;5.70;;
55601;SDS011;59921;51.332;12.410;2022-11-20T23:30:49;8.50;;;6.15;;
55601;SDS011;59921;51.332;12.410;2022-11-20T23:33:15;7.93;;;6.07;;
55601;SDS011;59921;51.332;12.410;2022-11-20T23:35:40;8.85;;;6.18;;
55601;SDS011;59921;51.332;12.410;2022-11-20T23:38:06;8.90;;;6.18;;
55601;SDS011;59921;51.332;12.410;2022-11-20T23:40:33;8.18;;;6.40;;
55601;SDS011;59921;51.332;12.410;2022-11-20T23:42:59;8.93;;;6.22;;
55601;SDS011;59921;51.332;12.410;2022-11-20T23:45:41;7.57;;;5.78;;
55601;SDS011;59921;51.332;12.410;2022-11-20T23:48:11;7.10;;;5.57;;
55601;SDS011;59921;51.332;12.410;2022-11-20T23:50:37;7.32;;;5.78;;
55601;SDS011;59921;51.332;12.410;2022-11-20T23:53:02;8.45;;;6.00;;
55601;SDS011;59921;51.332;12.410;2022-11-20T23:55:28;8.23;;;6.18;;
55601;SDS011;59921;51.332;12.410;2022-11-20T23:57:54;8.88;;;6.90;;
